Time;durP1;ratioP1;P1;durP2;ratioP2;P2;SDS_P1;SDS_P2;PMS_P1;PMS_P2;Temp;Humidity;BMP_temperature;BMP_pressure;BME280_temperature;BME280_humidity;BME280_pressure;Samples;Min_cycle;Max_cycle;Signal;HPM_P1;HPM_P2
2022/04/11 00:00:57;;;;;;;11.07;6.60;;;;;;;-142.75;100.00;78425.03;5053414;28;20108;-67
2022/04/11 00:03:23;;;;;;;12.52;6.13;;;;;;;-142.75;100.00;78425.03;5053260;28;20094;-68
2022/04/11 00:05:48;;;;;;;9.60;5.45;;;;;;;-142.75;100.00;78428.97;5053337;28;20498;-67
2022/04/11 00:08:14;;;;;;;11.87;6.03;;;;;;;-142.75;100.00;78432.91;5052917;28;20025;-67
2022/04/11 00:10:39;;;;;;;10.23;5.57;;;;;;;-142.75;100.00;78432.91;5053059;28;20792;-67
2022/04/11 00:13:07;;;;;;;14.23;6.27;;;;;;;-142.75;100.00;78425.03;5053198;28;20777;-67
2022/04/11 00:15:38;;;;;;;11.20;6.17;;;;;;;-142.75;100.00;78425.03;5053176;28;20028;-67
2022/04/11 00:18:03;;;;;;;13.27;6.73;;;;;;;-142.75;100.00;78417.16;5052778;28;20050;-67
2022/04/11 00:20:29;;;;;;;10.05;6.03;;;;;;;-142.75;100.00;78407.31;5051731;28;20032;-67
2022/04/11 00:22:55;;;;;;;14.13;6.95;;;;;;;-142.75;100.00;78405.34;5040012;28;20133;-67
2022/04/11 00:25:20;;;;;;;10.80;6.25;;;;;;;-142.75;100.00;78389.56;5031853;28;20053;-67
2022/04/11 00:27:45;;;;;;;10.48;6.32;;;;;;;-142.75;100.00;78373.81;5033195;28;20070;-66
2022/04/11 00:30:11;;;;;;;10.67;6.43;;;;;;;-142.75;100.00;78367.91;5032774;28;20104;-67
2022/04/11 00:32:40;;;;;;;13.90;6.85;;;;;;;-142.75;100.00;78358.06;5032872;28;20052;-67
2022/04/11 00:35:07;;;;;;;10.90;6.10;;;;;;;-142.75;100.00;78362.00;5032705;28;20029;-67
2022/04/11 00:37:33;;;;;;;10.50;6.40;;;;;;;-142.75;100.00;78360.03;5051482;28;20398;-67
2022/04/11 00:39:58;;;;;;;9.52;6.22;;;;;;;-142.75;100.00;78354.13;5051293;28;20033;-67
2022/04/11 00:42:27;;;;;;;10.50;6.33;;;;;;;-142.75;100.00;78350.19;5052608;28;20021;-67
2022/04/11 00:44:52;;;;;;;10.77;6.10;;;;;;;-142.75;100.00;78352.16;5052493;28;20565;-67
2022/04/11 00:47:18;;;;;;;9.30;5.70;;;;;;;-142.75;100.00;78356.09;5052478;28;20096;-66
2022/04/11 00:49:43;;;;;;;11.63;6.65;;;;;;;-142.75;100.00;78373.81;5052201;28;20024;-67
2022/04/11 00:52:09;;;;;;;11.77;6.90;;;;;;;-142.75;100.00;78371.84;5052307;28;20060;-67
2022/04/11 00:54:35;;;;;;;10.93;6.70;;;;;;;-142.75;100.00;78377.75;5051528;28;20394;-67
2022/04/11 00:57:01;;;;;;;13.77;6.70;;;;;;;-142.75;100.00;78381.69;5052302;28;20025;-67
2022/04/11 00:59:26;;;;;;;14.83;7.50;;;;;;;-142.75;100.00;78387.59;5050779;28;20530;-67
2022/04/11 01:01:52;;;;;;;11.38;6.32;;;;;;;-142.75;100.00;78391.53;5052206;28;20092;-67
2022/04/11 01:04:23;;;;;;;10.82;6.70;;;;;;;-142.75;100.00;78379.72;5052024;28;20028;-67
2022/04/11 01:06:55;;;;;;;13.90;6.47;;;;;;;-142.75;100.00;78397.44;5052159;28;20029;-66
2022/04/11 01:09:22;;;;;;;11.87;6.23;;;;;;;-142.75;100.00;78393.50;5051886;28;20027;-67
2022/04/11 01:11:48;;;;;;;13.47;7.23;;;;;;;-142.75;100.00;78401.38;5050746;28;20020;-67
2022/04/11 01:14:13;;;;;;;11.55;7.03;;;;;;;-142.75;100.00;78409.28;5052018;28;20024;-67
2022/04/11 01:16:39;;;;;;;10.77;6.45;;;;;;;-142.75;100.00;78403.38;5050657;28;20490;-67
2022/04/11 01:19:04;;;;;;;14.43;7.35;;;;;;;-142.75;100.00;78409.28;5050274;28;20060;-67
2022/04/11 01:21:32;;;;;;;9.50;5.63;;;;;;;-142.75;100.00;78417.16;5050481;28;20112;-67
2022/04/11 01:23:58;;;;;;;9.13;5.50;;;;;;;-142.75;100.00;78417.16;5051813;28;20033;-67
2022/04/11 01:26:25;;;;;;;10.43;6.30;;;;;;;-142.75;100.00;78428.97;5051759;28;20471;-67
2022/04/11 01:28:52;;;;;;;13.97;6.70;;;;;;;-142.75;100.00;78438.81;5051474;28;20074;-67
2022/04/11 01:31:17;;;;;;;14.63;5.93;;;;;;;-142.75;100.00;78442.75;5051437;28;20025;-67
2022/04/11 01:33:43;;;;;;;9.05;5.45;;;;;;;-142.75;100.00;78432.91;5050285;28;20032;-67
2022/04/11 01:36:08;;;;;;;10.70;7.00;;;;;;;-142.75;100.00;78425.03;5050265;28;20494;-67
2022/04/11 01:38:33;;;;;;;9.87;5.83;;;;;;;-142.75;100.00;78415.19;5049995;28;20306;-67
2022/04/11 01:40:59;;;;;;;13.07;6.72;;;;;;;-142.75;100.00;78405.34;5051451;28;20027;-67
2022/04/11 01:43:25;;;;;;;10.00;5.88;;;;;;;-142.75;100.00;78391.53;5051349;28;20039;-67
2022/04/11 01:45:51;;;;;;;12.48;6.40;;;;;;;-142.75;100.00;78385.63;5051368;28;20027;-67
2022/04/11 01:48:17;;;;;;;11.40;5.65;;;;;;;-142.75;100.00;78379.72;5049703;28;20474;-67
2022/04/11 01:50:43;;;;;;;10.98;5.90;;;;;;;-142.75;100.00;78373.81;5051201;28;20032;-67
2022/04/11 01:55:35;;;;;;;10.03;5.43;;;;;;;-142.75;100.00;78369.88;5071101;22;20060;-65
2022/04/11 01:58:05;;;;;;;11.40;6.50;;;;;;;-142.75;100.00;78363.97;5049603;28;20390;-65
2022/04/11 02:00:31;;;;;;;11.03;6.47;;;;;;;-142.75;100.00;78362.00;5050691;28;20506;-66
2022/04/11 02:03:01;;;;;;;10.70;6.80;;;;;;;-142.75;100.00;78362.00;5049831;28;20090;-66
2022/04/11 02:05:27;;;;;;;11.27;6.10;;;;;;;-142.75;100.00;78363.97;5051042;28;20461;-65
2022/04/11 02:07:52;;;;;;;;;;;;;;;-142.75;100.00;78362.00;5065620;28;20039;-65
2022/04/11 02:10:18;;;;;;;10.13;6.03;;;;;;;-142.75;100.00;78371.84;5050991;28;19913;-66
2022/04/11 02:12:43;;;;;;;10.98;6.03;;;;;;;-142.75;100.00;78369.88;5050890;28;20032;-66
2022/04/11 02:15:10;;;;;;;10.18;5.78;;;;;;;-142.75;100.00;78373.81;5050837;28;20498;-66
2022/04/11 02:17:35;;;;;;;;;;;;;;;-142.75;100.00;78369.88;5051242;28;20376;-66
2022/04/11 02:20:00;;;;;;;14.80;5.97;;;;;;;-142.75;100.00;78367.91;5050682;28;19919;-66
2022/04/11 02:22:26;;;;;;;10.13;5.95;;;;;;;-142.75;100.00;78369.88;5050829;28;20036;-66
2022/04/11 02:24:51;;;;;;;10.53;5.70;;;;;;;-142.75;100.00;78373.81;5050802;28;20051;-65
2022/04/11 02:27:16;;;;;;;11.85;5.78;;;;;;;-142.75;100.00;78375.78;5049463;28;20314;-66
2022/04/11 02:29:42;;;;;;;9.27;5.57;;;;;;;-142.75;100.00;78385.63;5050301;28;20028;-66
2022/04/11 02:32:07;;;;;;;11.65;6.05;;;;;;;-142.75;100.00;78389.56;5050586;28;20051;-66
2022/04/11 02:34:33;;;;;;;11.65;5.80;;;;;;;-142.75;100.00;78389.56;5050584;28;20021;-66
2022/04/11 02:36:58;;;;;;;10.85;6.25;;;;;;;-142.75;100.00;78391.53;5049419;28;20025;-66
2022/04/11 02:39:23;;;;;;;10.38;5.82;;;;;;;-142.75;100.00;78395.47;5050427;28;20078;-65
2022/04/11 02:41:49;;;;;;;10.10;5.88;;;;;;;-142.75;100.00;78397.44;5051000;28;20052;-66
2022/04/11 02:44:14;;;;;;;14.30;5.93;;;;;;;-142.75;100.00;78397.44;5050651;28;20063;-66
2022/04/11 02:46:42;;;;;;;14.53;6.47;;;;;;;-142.75;100.00;78385.63;5050375;28;20507;-66
2022/04/11 02:49:07;;;;;;;13.30;6.07;;;;;;;-142.75;100.00;78391.53;5050284;28;20275;-66
2022/04/11 02:51:32;;;;;;;14.10;6.22;;;;;;;-142.75;100.00;78389.56;5050409;28;20071;-65
2022/04/11 02:53:58;;;;;;;12.40;6.32;;;;;;;-142.75;100.00;78397.44;5050375;28;20115;-66
2022/04/11 02:56:23;;;;;;;10.10;6.43;;;;;;;-142.75;100.00;78395.47;5050399;28;20104;-65
2022/04/11 02:58:48;;;;;;;10.27;5.47;;;;;;;-142.75;100.00;78401.38;5050152;28;20024;-65
2022/04/11 03:01:14;;;;;;;10.07;6.13;;;;;;;-142.75;100.00;78399.44;5050238;28;20298;-66
2022/04/11 03:03:41;;;;;;;10.90;6.75;;;;;;;-142.75;100.00;78411.25;5050349;28;20279;-66
2022/04/11 03:06:06;;;;;;;12.97;6.60;;;;;;;-142.75;100.00;78405.34;5050391;28;20510;-66
2022/04/11 03:08:32;;;;;;;11.48;6.70;;;;;;;-142.75;100.00;78407.31;5050097;28;20104;-66
2022/04/11 03:10:57;;;;;;;11.33;6.40;;;;;;;-142.75;100.00;78411.25;5050563;28;20032;-66
2022/04/11 03:13:22;;;;;;;12.33;7.00;;;;;;;-142.75;100.00;78401.38;5050043;28;20279;-65
2022/04/11 03:15:47;;;;;;;10.60;6.57;;;;;;;-142.75;100.00;78405.34;5050284;28;20275;-65
2022/04/11 03:18:13;;;;;;;9.17;6.03;;;;;;;-142.75;100.00;78403.38;5050996;28;20312;-65
2022/04/11 03:20:38;;;;;;;12.37;7.20;;;;;;;-142.75;100.00;78401.38;5054191;28;20024;-65
2022/04/11 03:23:03;;;;;;;11.57;6.50;;;;;;;-142.75;100.00;78405.34;5054127;28;20656;-65
2022/04/11 03:25:29;;;;;;;10.07;6.38;;;;;;;-142.75;100.00;78399.44;5053997;28;20306;-65
2022/04/11 03:27:54;;;;;;;9.48;6.25;;;;;;;-142.75;100.00;78401.38;5053887;28;20052;-65
2022/04/11 03:30:19;;;;;;;13.87;6.53;;;;;;;-142.75;100.00;78407.31;5053851;28;20025;-65
2022/04/11 03:32:45;;;;;;;10.68;6.82;;;;;;;-142.75;100.00;78419.13;5053924;28;20025;-66
2022/04/11 03:35:10;;;;;;;12.40;6.97;;;;;;;-142.75;100.00;78417.16;5053740;28;20398;-66
2022/04/11 03:37:35;;;;;;;8.90;5.97;;;;;;;-142.75;100.00;78423.06;5053920;28;20271;-65
2022/04/11 03:40:01;;;;;;;9.77;5.97;;;;;;;-142.75;100.00;78423.06;5053638;28;20128;-66
2022/04/11 03:42:27;;;;;;;11.45;6.93;;;;;;;-142.75;100.00;78427.00;5053834;28;20024;-65
2022/04/11 03:44:52;;;;;;;11.75;7.13;;;;;;;-142.75;100.00;78428.97;5053554;28;20164;-65
2022/04/11 03:47:17;;;;;;;11.90;6.55;;;;;;;-142.75;100.00;78432.91;5053646;28;20025;-65
2022/04/11 03:49:43;;;;;;;10.80;6.57;;;;;;;-142.75;100.00;78436.84;5052088;28;20032;-65
2022/04/11 03:52:10;;;;;;;8.57;5.88;;;;;;;-142.75;100.00;78430.94;5053523;28;20032;-65
2022/04/11 03:54:35;;;;;;;13.30;6.83;;;;;;;-142.75;100.00;78432.91;5068673;28;20017;-66
2022/04/11 03:57:01;;;;;;;11.32;6.60;;;;;;;-142.75;100.00;78434.88;5053483;28;20103;-65
2022/04/11 03:59:26;;;;;;;10.40;6.93;;;;;;;-142.75;100.00;78436.84;5053136;28;20024;-65
2022/04/11 04:01:52;;;;;;;10.70;6.70;;;;;;;-142.75;100.00;78436.84;5053299;28;20017;-65
2022/04/11 04:04:17;;;;;;;10.23;6.05;;;;;;;-142.75;100.00;78440.78;5053535;28;20031;-65
2022/04/11 04:06:42;;;;;;;9.30;6.23;;;;;;;-142.75;100.00;78442.75;5053295;28;20687;-65
2022/04/11 04:09:07;;;;;;;10.70;7.77;;;;;;;-142.75;100.00;78452.59;5053005;28;20275;-65
2022/04/11 04:11:33;;;;;;;13.83;6.73;;;;;;;-142.75;100.00;78450.63;5053231;28;20287;-66
2022/04/11 04:13:58;;;;;;;13.95;6.50;;;;;;;-142.75;100.00;78458.50;5052871;28;20283;-65
2022/04/11 04:16:23;;;;;;;15.07;6.45;;;;;;;-142.75;100.00;78464.41;5053152;28;20178;-65
2022/04/11 04:18:49;;;;;;;7.80;6.13;;;;;;;-142.75;100.00;78472.28;5052902;28;20029;-66
2022/04/11 04:21:18;;;;;;;12.70;6.70;;;;;;;-142.75;100.00;78462.44;5053058;28;20016;-65
2022/04/11 04:23:44;;;;;;;12.37;6.17;;;;;;;-142.75;100.00;78472.28;5052925;28;20032;-65
2022/04/11 04:26:09;;;;;;;9.82;5.13;;;;;;;-142.75;100.00;78472.28;5052924;28;20024;-65
2022/04/11 04:28:34;;;;;;;10.20;5.30;;;;;;;-142.75;100.00;78488.03;5052452;28;20028;-66
2022/04/11 04:30:59;;;;;;;9.47;6.47;;;;;;;-142.75;100.00;78499.88;5051781;28;20287;-65
2022/04/11 04:33:25;;;;;;;10.47;6.67;;;;;;;-142.75;100.00;78491.97;5052792;28;20377;-65
2022/04/11 04:35:50;;;;;;;9.93;7.28;;;;;;;-142.75;100.00;78480.16;5051640;28;20025;-66
2022/04/11 04:38:15;;;;;;;14.63;7.30;;;;;;;-142.75;100.00;78476.22;5052512;28;20032;-65
2022/04/11 04:40:41;;;;;;;11.83;6.93;;;;;;;-142.75;100.00;78468.34;5051246;28;20268;-65
2022/04/11 04:43:07;;;;;;;9.17;6.70;;;;;;;-142.75;100.00;78472.28;5052455;28;20698;-65
2022/04/11 04:45:32;;;;;;;9.83;6.60;;;;;;;-142.75;100.00;78468.34;5052492;28;20021;-65
2022/04/11 04:47:58;;;;;;;14.50;7.25;;;;;;;-142.75;100.00;78472.28;5052314;28;20572;-65
2022/04/11 04:50:23;;;;;;;12.60;7.03;;;;;;;-142.75;100.00;78478.19;5052674;28;20071;-65
2022/04/11 04:52:48;;;;;;;18.23;7.97;;;;;;;-142.75;100.00;78474.25;5052464;28;20283;-65
2022/04/11 04:55:13;;;;;;;12.90;7.00;;;;;;;-142.75;100.00;78480.16;5052539;28;20040;-65
2022/04/11 04:57:39;;;;;;;11.50;7.82;;;;;;;-142.75;100.00;78486.06;5052256;28;20278;-65
2022/04/11 05:00:05;;;;;;;12.23;8.47;;;;;;;-142.75;100.00;78491.97;5052045;28;20025;-64
2022/04/11 05:02:37;;;;;;;11.93;7.20;;;;;;;-142.75;100.00;78491.97;5052214;28;20313;-65
2022/04/11 05:05:07;;;;;;;13.30;8.00;;;;;;;-142.75;100.00;78491.97;5052142;28;20485;-64
2022/04/11 05:07:33;;;;;;;10.40;7.50;;;;;;;-142.75;100.00;78488.03;5052038;28;20029;-65
2022/04/11 05:09:58;;;;;;;15.48;7.60;;;;;;;-142.75;100.00;78480.16;5051901;28;20028;-65
2022/04/11 05:12:24;;;;;;;14.05;6.63;;;;;;;-142.75;100.00;78484.09;5051741;28;20029;-65
2022/04/11 05:14:49;;;;;;;10.25;6.75;;;;;;;-142.75;100.00;78474.25;5052016;28;20032;-65
2022/04/11 05:17:14;;;;;;;12.40;7.13;;;;;;;-142.75;100.00;78470.31;5052002;28;20021;-65
2022/04/11 05:19:39;;;;;;;13.45;6.90;;;;;;;-142.75;100.00;78474.25;5051523;28;20494;-64
2022/04/11 05:22:06;;;;;;;13.93;7.00;;;;;;;-142.75;100.00;78472.28;5051904;28;20025;-64
2022/04/11 05:24:32;;;;;;;9.70;6.83;;;;;;;-142.75;100.00;78460.47;5051668;28;20502;-65
2022/04/11 05:26:57;;;;;;;12.02;7.50;;;;;;;-142.75;100.00;78460.47;5051650;28;20021;-65
2022/04/11 05:29:23;;;;;;;11.02;7.45;;;;;;;-142.75;100.00;78460.47;5051415;28;20017;-64
2022/04/11 05:31:48;;;;;;;13.50;8.00;;;;;;;-142.75;100.00;78456.53;5051579;28;20028;-64
2022/04/11 05:34:13;;;;;;;10.37;7.07;;;;;;;-142.75;100.00;78456.53;5051614;28;20267;-64
2022/04/11 05:36:38;;;;;;;14.70;7.07;;;;;;;-142.75;100.00;78450.63;5051666;28;20275;-64
2022/04/11 05:39:04;;;;;;;8.43;5.95;;;;;;;-142.75;100.00;78452.59;5038083;28;20091;-64
2022/04/11 05:41:29;;;;;;;15.33;7.63;;;;;;;-142.75;100.00;78421.09;5030706;28;20083;-65
2022/04/11 05:43:54;;;;;;;9.97;7.07;;;;;;;-142.75;100.00;78393.50;5031448;28;20355;-65
2022/04/11 05:46:20;;;;;;;10.25;6.72;;;;;;;-142.75;100.00;78373.81;5031502;28;20531;-65
2022/04/11 05:48:45;;;;;;;13.73;7.55;;;;;;;-142.75;100.00;78362.00;5031177;28;20051;-65
2022/04/11 05:51:10;;;;;;;11.20;7.43;;;;;;;-142.75;100.00;78348.22;5031463;28;20410;-65
2022/04/11 05:53:36;;;;;;;12.70;8.60;;;;;;;-142.75;100.00;78318.69;5031314;28;20036;-65
2022/04/11 05:56:01;;;;;;;16.42;9.93;;;;;;;-142.75;100.00;78304.91;5013585;28;20029;-65
2022/04/11 05:58:26;;;;;;;13.57;8.82;;;;;;;-142.75;100.00;78275.34;5031051;28;20021;-65
2022/04/11 06:00:51;;;;;;;12.13;7.90;;;;;;;-142.75;100.00;78263.53;5031342;28;20025;-65
2022/04/11 06:03:17;;;;;;;11.80;8.00;;;;;;;-142.75;100.00;78247.78;5031236;28;20036;-65
2022/04/11 06:05:42;;;;;;;12.27;6.82;;;;;;;-142.75;100.00;78235.97;5031288;28;20056;-65
2022/04/11 06:08:08;;;;;;;12.70;7.15;;;;;;;-142.75;100.00;78216.28;5030937;28;20030;-65
2022/04/11 06:10:33;;;;;;;11.50;7.07;;;;;;;-142.75;100.00;78206.44;5029600;28;20079;-65
2022/04/11 06:12:58;;;;;;;10.75;6.97;;;;;;;-142.75;100.00;78192.66;5031071;28;20075;-64
2022/04/11 06:15:23;;;;;;;10.23;7.33;;;;;;;-142.75;100.00;78182.81;5030952;28;20033;-65
2022/04/11 06:17:49;;;;;;;13.60;7.43;;;;;;;-142.75;100.00;78172.94;5030873;28;20029;-64
2022/04/11 06:20:14;;;;;;;13.07;7.88;;;;;;;-142.75;100.00;78155.22;5030868;28;20029;-64
2022/04/11 06:22:40;;;;;;;17.40;8.23;;;;;;;-142.75;100.00;78131.59;5041298;28;20364;-64
2022/04/11 06:25:08;;;;;;;12.73;7.47;;;;;;;-142.75;100.00;78102.06;5050607;28;20408;-64
2022/04/11 06:27:34;;;;;;;12.40;7.77;;;;;;;-142.75;100.00;78084.34;5050716;28;20024;-65
2022/04/11 06:30:00;;;;;;;13.37;7.80;;;;;;;-142.75;100.00;78066.63;5050399;28;20025;-64
2022/04/11 06:32:30;;;;;;;12.38;7.47;;;;;;;-142.75;100.00;78050.84;5050680;28;20028;-66
2022/04/11 06:34:55;;;;;;;12.00;7.53;;;;;;;-142.75;100.00;78039.03;5050620;28;20031;-65
2022/04/11 06:37:21;;;;;;;12.13;7.45;;;;;;;-142.75;100.00;78031.16;5050681;28;20020;-65
2022/04/11 06:39:47;;;;;;;14.77;8.02;;;;;;;-142.75;100.00;78025.25;5050198;28;20020;-65
2022/04/11 06:42:13;;;;;;;10.25;7.28;;;;;;;-142.75;100.00;77999.66;5050569;28;20028;-65
2022/04/11 06:44:38;;;;;;;15.38;7.97;;;;;;;-142.75;100.00;77981.94;5050510;28;20072;-65
2022/04/11 06:47:04;;;;;;;13.90;8.18;;;;;;;-142.75;100.00;77958.31;5050598;28;20029;-65
2022/04/11 06:49:29;;;;;;;16.30;9.13;;;;;;;-142.75;100.00;77940.59;5050146;28;20020;-65
2022/04/11 06:51:55;;;;;;;10.55;7.55;;;;;;;-142.75;100.00;77944.53;5050477;28;20094;-66
2022/04/11 06:54:21;;;;;;;9.90;6.88;;;;;;;-142.75;100.00;77950.44;5053212;28;20044;-65
2022/04/11 06:56:46;;;;;;;14.23;7.80;;;;;;;-142.75;100.00;77970.13;5054641;28;20021;-65
2022/04/11 06:59:11;;;;;;;11.85;7.55;;;;;;;-142.75;100.00;77968.16;5054274;28;20041;-65
2022/04/11 07:01:36;;;;;;;13.82;7.45;;;;;;;-142.75;100.00;77954.38;5033264;28;20021;-65
2022/04/11 07:04:02;;;;;;;14.90;8.17;;;;;;;-142.75;100.00;77936.66;5034516;28;20033;-65
2022/04/11 07:06:27;;;;;;;14.80;7.45;;;;;;;-142.75;100.00;77932.72;5034580;28;20282;-65
2022/04/11 07:08:52;;;;;;;12.63;7.38;;;;;;;-142.75;100.00;77926.81;5032649;28;20484;-65
2022/04/11 07:11:17;;;;;;;12.50;7.73;;;;;;;-142.75;100.00;77897.25;5033423;28;20030;-64
2022/04/11 07:13:44;;;;;;;10.93;7.47;;;;;;;-142.75;100.00;77859.84;5033089;28;20326;-64
2022/04/11 07:16:09;;;;;;;;;;;;;;;-142.75;100.00;77814.56;5033390;28;20116;-65
2022/04/11 07:18:36;;;;;;;10.23;7.60;;;;;;;-142.75;100.00;77769.28;5033120;28;19921;-65
2022/04/11 07:21:01;;;;;;;12.43;7.15;;;;;;;-142.75;100.00;77727.94;5033307;28;20456;-65
2022/04/11 07:23:27;;;;;;;10.52;6.60;;;;;;;-142.75;100.00;77708.22;5048412;28;20025;-65
2022/04/11 07:25:52;;;;;;;12.82;7.07;;;;;;;-142.75;100.00;77714.13;5033344;28;20083;-65
2022/04/11 07:28:17;;;;;;;14.27;7.25;;;;;;;-142.75;100.00;77706.25;5032906;28;20032;-65
2022/04/11 07:30:43;;;;;;;14.30;7.03;;;;;;;-142.75;100.00;77696.41;5015743;28;20021;-65
2022/04/11 07:33:09;;;;;;;11.65;6.57;;;;;;;-142.75;100.00;77664.91;5033547;28;20025;-64
2022/04/11 07:35:36;;;;;;;13.60;6.93;;;;;;;-142.75;100.00;77627.50;5033273;28;20026;-65
2022/04/11 07:38:01;;;;;;;16.25;7.40;;;;;;;-142.75;100.00;77574.34;5032668;28;20057;-65
2022/04/11 07:40:29;;;;;;;13.90;6.53;;;;;;;-142.75;100.00;77513.31;5032998;28;20049;-65
2022/04/11 07:42:55;;;;;;;11.80;6.47;;;;;;;-142.75;100.00;77505.44;5048144;28;20402;-65
2022/04/11 07:45:21;;;;;;;12.75;6.22;;;;;;;-142.75;100.00;77507.41;5033183;28;20034;-65
2022/04/11 07:47:46;;;;;;;12.10;6.03;;;;;;;-142.75;100.00;77495.59;5032767;28;20457;-66
2022/04/11 07:50:12;;;;;;;9.73;5.95;;;;;;;-142.75;100.00;77477.88;5032705;28;20075;-65
2022/04/11 07:52:43;;;;;;;14.90;5.80;;;;;;;-142.75;100.00;77479.84;5014960;28;20025;-65
2022/04/11 07:55:10;;;;;;;12.65;5.68;;;;;;;-142.75;100.00;77456.22;5031727;28;20036;-65
2022/04/11 07:57:36;;;;;;;10.80;5.45;;;;;;;-142.75;100.00;77436.50;5014972;28;20079;-65
2022/04/11 08:00:03;;;;;;;9.90;5.38;;;;;;;-142.75;100.00;77438.47;5032612;28;20029;-66
2022/04/11 08:02:29;;;;;;;10.63;5.57;;;;;;;-142.75;100.00;77418.78;5032631;28;20471;-66
2022/04/11 08:04:54;;;;;;;10.13;5.60;;;;;;;-142.75;100.00;77424.69;5032445;28;20072;-65
2022/04/11 08:07:20;;;;;;;12.93;5.85;;;;;;;-142.75;100.00;77387.28;5032548;28;20286;-65
2022/04/11 08:09:46;;;;;;;9.77;5.50;;;;;;;-142.75;100.00;77373.50;5014350;28;20108;-65
2022/04/11 08:14:53;;;;;;;11.00;4.97;;;;;;;-142.75;100.00;77322.31;5029295;28;20046;-66
2022/04/11 08:17:18;;;;;;;8.07;4.55;;;;;;;-142.75;100.00;77314.44;5029564;28;20095;-66
2022/04/11 08:19:43;;;;;;;9.13;4.93;;;;;;;-142.75;100.00;77290.81;5032937;28;20053;-66
2022/04/11 08:22:08;;;;;;;6.47;4.25;;;;;;;-142.75;99.30;77259.31;5033118;28;20689;-67
2022/04/11 08:24:34;;;;;;;12.93;5.15;;;;;;;-142.75;97.12;77227.81;5032917;28;20070;-67
2022/04/11 08:26:59;;;;;;;9.93;5.00;;;;;;;-142.75;93.24;77217.97;5032995;28;20028;-66
2022/04/11 08:29:25;;;;;;;9.90;5.05;;;;;;;-142.75;92.32;77204.19;5032577;28;20027;-66
2022/04/11 08:31:51;;;;;;;6.82;4.25;;;;;;;-142.75;95.18;77188.44;5032667;28;20365;-65
2022/04/11 08:34:16;;;;;;;10.18;4.82;;;;;;;-142.75;95.16;77164.81;5032638;28;20036;-66
2022/04/11 08:36:43;;;;;;;7.30;4.30;;;;;;;-142.75;89.83;77164.81;5032782;28;20052;-66
2022/04/11 08:39:09;;;;;;;7.93;4.22;;;;;;;-142.75;88.81;77200.25;5032106;28;20033;-66
2022/04/11 08:41:35;;;;;;;9.25;5.03;;;;;;;-142.75;88.19;77235.69;5032830;28;20017;-65
2022/04/11 08:44:02;;;;;;;8.13;4.60;;;;;;;-142.75;91.19;77231.75;5031173;28;20026;-66
2022/04/11 08:46:28;;;;;;;9.50;4.55;;;;;;;-142.75;89.87;77217.97;5032627;28;20049;-66
2022/04/11 08:48:54;;;;;;;;;;;;;;;-142.75;89.03;77212.06;5031429;28;20041;-67
2022/04/11 08:51:19;;;;;;;7.13;4.32;;;;;;;-142.75;87.25;77182.53;5032556;28;19919;-66
2022/04/11 08:53:45;;;;;;;8.40;3.90;;;;;;;-142.75;84.85;77184.50;5032492;28;20534;-65
2022/04/11 08:56:10;;;;;;;8.90;4.05;;;;;;;-142.75;88.58;77166.78;5031295;28;20460;-68
2022/04/11 08:58:36;;;;;;;7.32;3.97;;;;;;;-142.75;83.30;77151.03;5032054;28;20515;-65
2022/04/11 09:01:01;;;;;;;5.72;3.97;;;;;;;-142.75;81.43;77153.00;5032471;28;20464;-66
2022/04/11 09:03:27;;;;;;;;;;;;;;;-142.75;84.90;77125.44;5032891;28;20443;-66
2022/04/11 09:06:04;;;;;;;8.73;4.10;;;;;;;-142.75;82.42;77101.81;5032190;28;19924;-66
2022/04/11 09:08:40;;;;;;;9.00;4.43;;;;;;;-142.75;85.52;77093.94;5030593;28;20021;-66
2022/04/11 09:11:05;;;;;;;8.13;4.25;;;;;;;-142.75;86.12;77090.00;5030707;28;20025;-65
2022/04/11 09:13:47;;;;;;;7.13;4.25;;;;;;;-142.75;85.51;77054.56;5030721;28;20079;-66
2022/04/11 09:16:13;;;;;;;6.60;4.18;;;;;;;-142.75;80.22;77023.06;5030330;28;20479;-65
2022/04/11 09:18:58;;;;;;;8.40;4.13;;;;;;;-142.75;75.57;77050.63;5031724;28;20027;-66
2022/04/11 09:21:24;;;;;;;12.32;4.40;;;;;;;-142.75;78.99;77036.84;5031605;28;20033;-66
2022/04/11 09:23:50;;;;;;;8.77;4.13;;;;;;;-142.75;74.69;77034.88;5031806;28;20384;-66
2022/04/11 09:26:16;;;;;;;;;;;;;;;-142.75;76.30;76999.44;5032361;28;20461;-66
2022/04/11 09:28:41;;;;;;;7.70;3.17;;;;;;;-142.75;70.09;76975.81;5031474;28;19919;-66
2022/04/11 09:31:07;;;;;;;6.90;3.40;;;;;;;-142.75;74.78;76975.81;5031784;28;20434;-65
2022/04/11 09:33:39;;;;;;;;;;;;;;;-142.75;70.48;76967.94;5032145;28;20056;-66
2022/04/11 09:36:05;;;;;;;10.30;3.53;;;;;;;-142.75;69.69;76989.59;5030284;28;20008;-66
2022/04/11 09:38:35;;;;;;;;;;;;;;;-142.75;67.97;77066.38;5032027;28;20013;-66
2022/04/11 09:41:02;;;;;;;7.15;3.10;;;;;;;-142.75;66.55;77078.19;5030383;28;19967;-66
2022/04/11 09:43:31;;;;;;;6.10;2.42;;;;;;;-142.75;70.24;77034.88;5031476;28;20458;-66
2022/04/11 09:46:01;;;;;;;5.25;3.08;;;;;;;-142.75;68.79;77074.25;5031569;28;20029;-66
2022/04/11 09:48:28;;;;;;;7.18;2.53;;;;;;;-142.75;67.67;77042.75;5030643;28;20040;-66
2022/04/11 09:50:55;;;;;;;7.35;2.90;;;;;;;-142.75;65.51;77023.06;5031407;28;20037;-65
2022/04/11 09:53:39;;;;;;;6.57;2.67;;;;;;;-142.75;66.12;77015.19;5031250;28;20044;-66
2022/04/11 09:56:08;;;;;;;8.15;2.58;;;;;;;-142.75;64.61;77044.72;5031400;28;20398;-66
2022/04/11 09:58:35;;;;;;;5.70;2.67;;;;;;;-142.75;66.06;77015.19;5031034;28;20492;-66
2022/04/11 10:01:03;;;;;;;7.60;3.22;;;;;;;-142.75;68.43;76967.94;5031250;28;20495;-66
2022/04/11 10:03:29;;;;;;;7.55;3.22;;;;;;;-142.75;64.43;76960.06;5031125;28;20395;-65
2022/04/11 10:05:55;;;;;;;6.53;2.95;;;;;;;-142.75;67.67;76965.97;5031249;28;20025;-66
2022/04/11 10:08:25;;;;;;;6.65;2.72;;;;;;;-142.75;66.13;76956.13;5029605;28;20107;-66
2022/04/11 10:10:51;;;;;;;6.47;2.63;;;;;;;-142.75;63.96;76983.69;5031051;28;20387;-66
2022/04/11 10:13:17;;;;;;;7.20;2.88;;;;;;;-142.75;61.59;77013.22;5030629;28;20033;-66
2022/04/11 10:15:49;;;;;;;8.25;3.15;;;;;;;-142.75;60.72;77023.06;5031018;28;20040;-65
2022/04/11 10:18:23;;;;;;;4.65;3.03;;;;;;;-142.75;63.73;77023.06;5029340;28;20029;-66
2022/04/11 10:20:51;;;;;;;5.10;3.20;;;;;;;-142.75;63.38;77009.28;5030969;28;20025;-65
2022/04/11 10:23:28;;;;;;;6.78;2.92;;;;;;;-142.75;61.39;77019.13;5030838;28;20014;-65
2022/04/11 10:25:57;;;;;;;6.18;3.47;;;;;;;-142.75;62.34;77027.00;5030824;28;20116;-66
2022/04/11 10:28:25;;;;;;;5.30;3.22;;;;;;;-142.75;63.18;76960.06;5029692;28;20491;-65
2022/04/11 10:31:11;;;;;;;7.45;3.15;;;;;;;-142.75;63.38;76973.84;5030798;28;20033;-66
2022/04/11 10:33:44;;;;;;;7.95;3.05;;;;;;;-142.75;58.16;76993.53;5030779;28;20033;-65
2022/04/11 10:36:25;;;;;;;5.40;3.10;;;;;;;-142.75;61.63;76967.94;5030682;28;20025;-65
2022/04/11 10:39:12;;;;;;;5.28;2.92;;;;;;;-142.75;62.82;76946.28;5030477;28;20068;-66
2022/04/11 10:41:58;;;;;;;5.75;3.38;;;;;;;-142.75;61.85;76916.75;5030735;28;20108;-66
2022/04/11 10:44:41;;;;;;;4.93;2.85;;;;;;;-142.75;60.24;76912.81;5030519;28;20030;-66
2022/04/11 10:47:13;;;;;;;9.40;2.95;;;;;;;-142.75;60.25;76924.63;5030612;28;20025;-66
2022/04/11 10:49:50;;;;;;;5.70;3.53;;;;;;;-142.75;59.65;76922.66;5029780;28;20056;-65
2022/04/11 10:52:33;;;;;;;6.93;3.25;;;;;;;-142.75;59.82;76928.56;5030504;28;20052;-66
2022/04/11 10:55:06;;;;;;;5.13;2.92;;;;;;;-142.75;62.43;76926.59;5045909;28;20048;-66
2022/04/11 10:57:47;;;;;;;5.43;3.55;;;;;;;-142.75;59.02;76944.31;5030526;28;20033;-66
2022/04/11 11:00:14;;;;;;;8.60;3.10;;;;;;;-142.75;59.09;76924.63;5030454;28;20104;-66
2022/04/11 11:02:59;;;;;;;5.90;3.00;;;;;;;-142.75;57.14;76928.56;5045778;28;20021;-66
2022/04/11 11:05:30;;;;;;;7.03;2.65;;;;;;;-142.75;58.35;76901.00;5030673;28;20025;-65
2022/04/11 11:08:11;;;;;;;9.48;2.90;;;;;;;-142.75;59.39;76912.81;5030209;28;20498;-65
2022/04/11 11:10:40;;;;;;;8.45;3.60;;;;;;;-142.75;57.32;76930.53;5030661;28;20029;-66